KBDE/BDE METAR and TAF weather

Enter ICAO airport designator
Station Type Date Time Source
KBDE METAR 2018/10/21 02:53 UTC NOAA

KBDE 210253Z AUTO 00000KT 10SM CLR M02/M06 A3023 RMK AO2 SLP254 T10171061 58011 $


Station Type Date Time Source
KBDE Decoded METAR 2018/10/21 02:53 UTC NOAA

BAUDETTE INTERNATIONAL AIRPORT, MN, United States (KBDE) 48-44N 94-37W 329M
Oct 20, 2018 - 10:53 PM EDT / 2018.10.21 0253 UTC
Wind: Calm:0
Visibility: 10 mile(s):0
Sky conditions: clear
Temperature: 28.9 F (-1.7 C)
Dew Point: 21.0 F (-6.1 C)
Relative Humidity: 71%
Pressure (altimeter): 30.23 in. Hg (1023 hPa)
Pressure tendency: 0.03 inches (1.1 hPa) lower than three hours ago
ob: KBDE 210253Z AUTO 00000KT 10SM CLR M02/M06 A3023 RMK AO2 SLP254 T10171061 58011
cycle: 3

Station Type Date Time Source
KBDE TAF UTC NOAA

Error!


Example: see airport list